Oak Hall, Virginia
Current Conditions -  °F | °C
As of 4:54 AM on Wednesday 26 Nov 2014 (Local Time) from KWAL Reporting Station
Light Rain Light Rain  
Wind Chill: 36°   Ceiling: 3900
Heat Index: 45°   Visibility: 5mi
Dew Point: 44°   Wind: 25mph
Humidity: 97%   Direction: 70°ENE
Pressure: 30.04"   Gusts: 30mph
Location:  37.93°N, 75.54°W
Report Text: KWAL 260954Z AUTO 07022G26KT 5SM -RA BR FEW008 BKN039 OVC048 07/07 A3004 RMK AO2 PK WND 07027/0927 SLP168 P0005 T00720067
Loading
Personal Weather Stations






























Interactive Weather Map New forecast layout! Learn more

10-Day Weather Forecast

Advertisements
Track Severe Weather on mobile